createdAt,value
2018-08-25T00:00:47.161Z,25.4
2018-08-25T00:01:37.112Z,25.4
2018-08-25T00:02:27.759Z,25.4
2018-08-25T00:03:17.058Z,25.4
2018-08-25T00:04:06.287Z,25.4
2018-08-25T00:04:57.780Z,25.4
2018-08-25T00:05:46.962Z,25.4
2018-08-25T00:06:37.591Z,25.4
2018-08-25T00:07:27.668Z,25.4
2018-08-25T00:08:16.543Z,25.4
2018-08-25T00:09:08.091Z,25.4
2018-08-25T00:09:57.220Z,25.4
2018-08-25T00:10:49.030Z,25.4
2018-08-25T00:11:38.447Z,25.4
2018-08-25T00:12:27.719Z,25.4
2018-08-25T00:31:24.180Z,25.4
2018-08-25T00:32:14.539Z,25.4
2018-08-25T00:33:04.049Z,25.4
2018-08-25T00:33:54.357Z,25.4
2018-08-25T00:34:44.434Z,25.4
2018-08-25T00:35:34.745Z,25.4
2018-08-25T00:36:24.505Z,25.4
2018-08-25T00:37:14.921Z,25.4
2018-08-25T00:38:04.401Z,25.4
2018-08-25T00:38:55.261Z,25.4
2018-08-25T00:39:45.632Z,25.4
2018-08-25T00:40:34.861Z,25.4
2018-08-25T00:41:26.008Z,25.4
2018-08-25T00:42:14.508Z,25.4
2018-08-25T00:43:04.523Z,25.4
2018-08-25T00:43:55.121Z,25.4
2018-08-25T00:44:44.669Z,25.4
2018-08-25T00:45:34.109Z,25.4
2018-08-25T00:46:25.564Z,25.4
2018-08-25T00:47:15.934Z,25.4
2018-08-25T00:48:05.672Z,25.4
2018-08-25T00:48:55.219Z,25.4
2018-08-25T00:49:45.642Z,25.4
2018-08-25T00:50:35.935Z,25.4
2018-08-25T00:51:25.639Z,25.4
2018-08-25T00:52:15.508Z,25.4
2018-08-25T00:53:04.705Z,25.4
2018-08-25T00:53:55.337Z,25.4
2018-08-25T00:54:45.404Z,25.4
2018-08-25T00:55:36.700Z,25.4
2018-08-25T00:56:25.543Z,25.4
2018-08-25T00:57:16.458Z,25.4
2018-08-25T00:58:05.902Z,25.4
2018-08-25T00:58:56.103Z,25.4
2018-08-25T00:59:46.431Z,25.4
2018-08-25T01:00:36.421Z,25.4
2018-08-25T01:01:27.016Z,25.4
2018-08-25T01:02:17.391Z,25.4
2018-08-25T01:03:05.441Z,25.4
2018-08-25T01:03:56.653Z,25.4
2018-08-25T01:04:46.744Z,25.4
2018-08-25T01:05:36.276Z,25.4
2018-08-25T01:06:26.073Z,25.4
2018-08-25T01:07:16.275Z,25.4
2018-08-25T01:08:07.088Z,25.4
2018-08-25T01:08:57.339Z,25.4
2018-08-25T01:09:47.426Z,25.4
2018-08-25T01:10:37.793Z,25.4
2018-08-25T01:11:27.214Z,25.4
2018-08-25T01:12:16.624Z,25.4
2018-08-25T01:13:07.686Z,25.4
2018-08-25T01:13:56.678Z,25.4
2018-08-25T01:14:46.983Z,25.4
2018-08-25T01:15:37.693Z,25.4
2018-08-25T01:16:27.345Z,25.4
2018-08-25T01:17:17.386Z,25.4
2018-08-25T01:18:06.374Z,25.4
2018-08-25T01:18:57.863Z,25.4
2018-08-25T01:19:47.446Z,25.4
2018-08-25T01:20:38.295Z,25.4
2018-08-25T01:21:26.915Z,25.4
2018-08-25T01:22:18.323Z,25.3
2018-08-25T01:23:08.743Z,25.4
2018-08-25T01:23:58.797Z,25.4
2018-08-25T01:24:48.070Z,25.3
2018-08-25T01:25:37.250Z,25.4
2018-08-25T01:26:29.027Z,25.4
2018-08-25T01:27:17.933Z,25.3
2018-08-25T01:28:07.956Z,25.4
2018-08-25T01:28:58.352Z,25.4
2018-08-25T01:29:47.540Z,25.4
2018-08-25T01:30:39.089Z,25.3
2018-08-25T01:31:28.524Z,25.3
2018-08-25T01:32:18.548Z,25.3
2018-08-25T01:33:08.851Z,25.3
2018-08-25T01:33:59.262Z,25.3
2018-08-25T01:34:49.070Z,25.3
2018-08-25T01:35:39.159Z,25.3
2018-08-25T01:36:28.022Z,25.3
2018-08-25T01:37:18.165Z,25.3
2018-08-25T01:38:09.855Z,25.3
2018-08-25T01:38:59.921Z,25.3
2018-08-25T01:39:49.745Z,25.3
2018-08-25T01:40:39.489Z,25.3
2018-08-25T01:41:29.860Z,25.3
2018-08-25T01:42:19.136Z,25.3
2018-08-25T01:43:10.602Z,25.3
2018-08-25T01:44:00.596Z,25.3
2018-08-25T01:44:50.959Z,25.3
2018-08-25T01:45:39.612Z,25.3
2018-08-25T01:46:29.977Z,25.3
2018-08-25T01:47:20.063Z,25.3
2018-08-25T01:48:09.544Z,25.3
2018-08-25T01:48:59.110Z,25.3
2018-08-25T01:49:49.713Z,25.3
2018-08-25T01:50:40.352Z,25.3
2018-08-25T01:51:28.787Z,25.3
2018-08-25T01:52:20.157Z,25.3
2018-08-25T01:53:11.070Z,25.3
2018-08-25T01:54:00.833Z,25.3
2018-08-25T01:54:50.671Z,25.3
2018-08-25T01:55:40.212Z,25.3
2018-08-25T01:56:30.284Z,25.3
2018-08-25T01:57:20.243Z,25.3
2018-08-25T01:58:10.444Z,25.3
2018-08-25T01:59:01.286Z,25.3
2018-08-25T01:59:50.292Z,25.3
2018-08-25T02:00:41.224Z,25.3
2018-08-25T02:01:30.979Z,25.3
2018-08-25T02:02:20.743Z,25.3
2018-08-25T02:03:11.053Z,25.3
2018-08-25T02:04:01.378Z,25.3
2018-08-25T02:04:51.186Z,25.3
2018-08-25T02:05:41.184Z,25.3
2018-08-25T02:06:30.254Z,25.3
2018-08-25T02:07:21.142Z,25.3
2018-08-25T02:08:11.188Z,25.3
2018-08-25T02:09:01.576Z,25.3
2018-08-25T02:09:51.056Z,25.3
2018-08-25T02:10:40.914Z,25.3
2018-08-25T02:11:31.474Z,25.3
2018-08-25T02:12:19.797Z,25.3
2018-08-25T02:13:12.158Z,25.3
2018-08-25T02:14:01.301Z,25.3
2018-08-25T02:14:51.689Z,25.3
2018-08-25T02:15:42.274Z,25.3
2018-08-25T02:16:32.133Z,25.3
2018-08-25T02:17:22.143Z,25.3
2018-08-25T02:18:11.936Z,25.3
2018-08-25T02:19:02.784Z,25.3
2018-08-25T02:19:52.567Z,25.3
2018-08-25T02:20:42.109Z,25.3
2018-08-25T02:21:32.434Z,25.3
2018-08-25T02:22:22.859Z,25.2
2018-08-25T02:23:12.889Z,25.2
2018-08-25T02:24:02.867Z,25.3
2018-08-25T02:24:52.182Z,25.3
2018-08-25T02:25:42.540Z,25.2
2018-08-25T02:26:32.895Z,25.3
2018-08-25T02:27:22.357Z,25.3
2018-08-25T02:28:13.510Z,25.3
2018-08-25T02:29:02.862Z,25.3
2018-08-25T02:29:51.505Z,25.2
2018-08-25T02:30:42.564Z,25.3
2018-08-25T02:31:32.233Z,25.2
2018-08-25T02:32:22.587Z,25.3
2018-08-25T02:33:12.827Z,25.2
2018-08-25T02:34:03.753Z,25.2
2018-08-25T02:34:53.272Z,25.2
2018-08-25T02:35:44.154Z,25.2
2018-08-25T02:36:32.791Z,25.2
2018-08-25T02:37:23.192Z,25.3
2018-08-25T02:38:13.898Z,25.2
2018-08-25T02:39:02.706Z,25.2
2018-08-25T02:39:53.596Z,25.2
2018-08-25T02:40:43.477Z,25.2
2018-08-25T02:41:32.941Z,25.2
2018-08-25T02:42:24.450Z,25.2
2018-08-25T02:43:13.639Z,25.2
2018-08-25T02:44:03.183Z,25.2
2018-08-25T02:44:53.518Z,25.2
2018-08-25T02:45:44.453Z,25.2
2018-08-25T02:46:33.802Z,25.2
2018-08-25T02:47:25.051Z,25.2
2018-08-25T02:48:14.617Z,25.2
2018-08-25T02:49:04.566Z,25.2
2018-08-25T02:49:53.870Z,25.1
2018-08-25T02:50:44.728Z,25.2
2018-08-25T02:51:34.591Z,25.1
2018-08-25T02:52:25.077Z,25.2
2018-08-25T02:53:14.725Z,25.2
2018-08-25T02:54:03.890Z,25.2
2018-08-25T02:54:55.598Z,25.2
2018-08-25T02:55:45.437Z,25.2
2018-08-25T02:56:35.512Z,25.2
2018-08-25T02:57:25.557Z,25.1
2018-08-25T02:58:14.229Z,25.1
2018-08-25T02:59:05.123Z,25.2
2018-08-25T02:59:55.498Z,25.2
2018-08-25T03:00:45.546Z,25.2
2018-08-25T03:01:35.353Z,25.1
2018-08-25T03:02:24.794Z,25.1
2018-08-25T03:03:15.176Z,25.1
2018-08-25T03:04:05.831Z,25.1
2018-08-25T03:04:56.380Z,25.1
2018-08-25T03:05:45.603Z,25.2
2018-08-25T03:06:35.996Z,25.1
2018-08-25T03:07:26.393Z,25.1
2018-08-25T03:08:16.129Z,25.1
2018-08-25T03:09:06.494Z,25.1
2018-08-25T03:09:56.794Z,25.1
2018-08-25T03:10:47.164Z,25.1
2018-08-25T03:11:35.810Z,25.1
2018-08-25T03:12:27.011Z,25.1
2018-08-25T03:13:15.648Z,25.1
2018-08-25T03:14:06.632Z,25.1
2018-08-25T03:14:55.591Z,25.1
2018-08-25T03:15:45.312Z,25.1
2018-08-25T03:16:36.590Z,25.1
2018-08-25T03:17:27.178Z,25.1
2018-08-25T03:18:17.124Z,25.1
2018-08-25T03:19:06.662Z,25.1
2018-08-25T03:19:57.583Z,25.1
2018-08-25T03:20:46.070Z,25.1
2018-08-25T03:21:36.874Z,25.1
2018-08-25T03:22:26.338Z,25.1
2018-08-25T03:23:17.313Z,25.1
2018-08-25T03:24:07.406Z,25.1
2018-08-25T03:24:57.698Z,25.1
2018-08-25T03:25:46.086Z,25.1
2018-08-25T03:26:38.029Z,25.1
2018-08-25T03:27:27.874Z,25.1
2018-08-25T03:28:17.953Z,25.1
2018-08-25T03:29:07.731Z,25.1
2018-08-25T03:29:57.251Z,25.1
2018-08-25T03:30:47.773Z,25.1
2018-08-25T03:31:37.913Z,25.1
2018-08-25T03:32:28.110Z,25.1
2018-08-25T03:33:19.057Z,25.1
2018-08-25T03:34:07.834Z,25.1
2018-08-25T03:34:57.633Z,25.1
2018-08-25T03:35:48.923Z,25.1
2018-08-25T03:36:37.437Z,25.1
2018-08-25T03:37:28.085Z,25.1
2018-08-25T03:38:19.738Z,25.1
2018-08-25T03:39:09.022Z,25.1
2018-08-25T03:39:59.388Z,25.1
2018-08-25T03:40:49.449Z,25.1
2018-08-25T03:41:38.656Z,25.1
2018-08-25T03:42:29.011Z,25.1
2018-08-25T03:43:17.728Z,25.1
2018-08-25T03:44:09.545Z,25.1
2018-08-25T03:44:58.593Z,25.1
2018-08-25T03:45:48.807Z,25.1
2018-08-25T03:46:38.779Z,25.1
2018-08-25T03:47:28.608Z,25.1
2018-08-25T03:48:19.128Z,25.1
2018-08-25T03:49:08.671Z,25.1
2018-08-25T03:49:59.409Z,25.1
2018-08-25T03:50:50.142Z,25.1
2018-08-25T03:51:39.417Z,25.1
2018-08-25T03:52:30.348Z,25.1
2018-08-25T03:53:20.470Z,25.1
2018-08-25T03:54:08.755Z,25
2018-08-25T03:55:00.852Z,25
2018-08-25T03:55:50.847Z,25.1
2018-08-25T03:56:40.619Z,25
2018-08-25T03:57:30.446Z,25
2018-08-25T03:58:18.629Z,25
2018-08-25T03:59:10.909Z,25
2018-08-25T04:00:00.389Z,25
2018-08-25T04:00:51.493Z,25
2018-08-25T04:01:43.655Z,25
2018-08-25T04:02:30.508Z,25.1
2018-08-25T04:03:19.764Z,25
2018-08-25T04:04:11.226Z,25
2018-08-25T04:05:00.980Z,25
2018-08-25T04:05:51.580Z,25
2018-08-25T04:06:41.367Z,25
2018-08-25T04:07:30.618Z,25
2018-08-25T04:08:21.235Z,25
2018-08-25T04:09:11.878Z,25
2018-08-25T04:10:00.496Z,25
2018-08-25T04:10:51.735Z,25
2018-08-25T04:11:41.887Z,25
2018-08-25T04:12:30.410Z,25
2018-08-25T04:13:21.127Z,25
2018-08-25T04:14:12.216Z,25
2018-08-25T04:15:04.098Z,25
2018-08-25T04:15:51.287Z,25
2018-08-25T04:16:41.306Z,25
2018-08-25T04:17:32.029Z,25
2018-08-25T04:18:21.475Z,25
2018-08-25T04:19:12.227Z,25
2018-08-25T04:20:01.947Z,24.9
2018-08-25T04:20:52.273Z,25
2018-08-25T04:21:42.609Z,25
2018-08-25T04:22:33.019Z,25
2018-08-25T04:23:22.505Z,24.9
2018-08-25T04:24:12.179Z,25
2018-08-25T04:25:02.609Z,25
2018-08-25T04:25:52.140Z,25
2018-08-25T04:26:43.023Z,24.9
2018-08-25T04:27:32.029Z,25
2018-08-25T04:28:22.525Z,25
2018-08-25T04:29:12.669Z,24.9
2018-08-25T04:30:02.970Z,24.9
2018-08-25T04:30:52.992Z,25
2018-08-25T04:31:42.024Z,25
2018-08-25T04:32:33.689Z,25
2018-08-25T04:33:24.273Z,24.9
2018-08-25T04:34:13.586Z,24.9
2018-08-25T04:35:03.090Z,25
2018-08-25T04:35:53.662Z,24.9
2018-08-25T04:36:43.985Z,24.9
2018-08-25T04:37:33.173Z,24.9
2018-08-25T04:38:23.350Z,24.9
2018-08-25T04:39:14.248Z,24.9
2018-08-25T04:40:04.294Z,24.9
2018-08-25T04:40:54.079Z,24.9
2018-08-25T04:41:43.561Z,24.9
2018-08-25T04:42:34.741Z,24.9
2018-08-25T05:00:32.796Z,24.9
2018-08-25T05:01:21.878Z,24.9
2018-08-25T05:02:11.808Z,24.9
2018-08-25T05:03:02.519Z,24.9
2018-08-25T05:03:52.637Z,24.9
2018-08-25T05:04:42.287Z,24.9
2018-08-25T05:05:33.010Z,24.9
2018-08-25T05:06:22.767Z,24.9
2018-08-25T05:07:12.550Z,24.9
2018-08-25T05:08:01.789Z,24.9
2018-08-25T05:08:52.489Z,24.9
2018-08-25T05:09:42.619Z,24.9
2018-08-25T05:10:33.369Z,24.9
2018-08-25T05:11:23.398Z,24.9
2018-08-25T05:12:12.682Z,24.9
2018-08-25T05:13:03.594Z,24.9
2018-08-25T05:13:53.029Z,24.9
2018-08-25T05:14:43.453Z,24.9
2018-08-25T05:15:33.784Z,24.9
2018-08-25T05:16:23.538Z,24.9
2018-08-25T05:17:13.979Z,24.9
2018-08-25T05:18:03.376Z,24.9
2018-08-25T05:18:52.921Z,24.9
2018-08-25T05:19:43.569Z,24.9
2018-08-25T05:20:33.832Z,24.9
2018-08-25T05:21:23.688Z,24.9
2018-08-25T05:22:14.474Z,24.9
2018-08-25T05:23:04.110Z,24.9
2018-08-25T05:23:53.914Z,24.9
2018-08-25T05:24:44.204Z,24.9
2018-08-25T05:25:34.278Z,24.9
2018-08-25T05:26:24.260Z,24.9
2018-08-25T05:27:14.092Z,24.9
2018-08-25T05:28:04.485Z,24.9
2018-08-25T05:28:53.950Z,24.9
2018-08-25T05:29:44.849Z,24.9
2018-08-25T05:30:34.582Z,24.9
2018-08-25T05:31:24.112Z,24.9
2018-08-25T05:32:14.742Z,24.9
2018-08-25T05:33:04.297Z,24.9
2018-08-25T05:33:54.856Z,24.9
2018-08-25T05:34:44.720Z,24.9
2018-08-25T05:35:33.868Z,24.9
2018-08-25T05:36:25.380Z,24.9
2018-08-25T05:37:14.841Z,24.9
2018-08-25T05:38:04.965Z,24.9
2018-08-25T05:38:55.296Z,24.9
2018-08-25T05:39:45.358Z,24.9
2018-08-25T05:40:35.079Z,24.9
2018-08-25T05:41:25.492Z,24.9
2018-08-25T05:42:14.941Z,24.9
2018-08-25T05:43:04.709Z,24.9
2018-08-25T05:43:55.938Z,24.9
2018-08-25T05:44:44.995Z,24.9
2018-08-25T05:45:35.906Z,24.9
2018-08-25T05:46:24.984Z,24.9
2018-08-25T05:47:16.487Z,24.9
2018-08-25T05:48:05.444Z,24.9
2018-08-25T05:48:56.088Z,24.9
2018-08-25T05:49:44.515Z,24.9
2018-08-25T05:50:36.478Z,24.9
2018-08-25T05:51:26.902Z,24.9
2018-08-25T05:52:17.164Z,24.9
2018-08-25T05:53:06.952Z,24.9
2018-08-25T05:53:56.809Z,24.9
2018-08-25T05:54:46.495Z,24.9
2018-08-25T05:55:37.112Z,24.9
2018-08-25T05:56:26.903Z,24.9
2018-08-25T05:57:16.667Z,24.9
2018-08-25T05:58:07.105Z,24.9
2018-08-25T05:58:57.214Z,24.9
2018-08-25T05:59:47.465Z,24.9
2018-08-25T06:00:36.961Z,24.9
2018-08-25T06:01:26.717Z,24.9
2018-08-25T06:02:17.392Z,24.9
2018-08-25T06:03:07.684Z,25
2018-08-25T06:03:57.489Z,24.9
2018-08-25T06:04:47.199Z,24.9
2018-08-25T06:05:37.644Z,25
2018-08-25T06:06:28.109Z,25
2018-08-25T06:07:17.985Z,24.9
2018-08-25T06:08:07.342Z,24.9
2018-08-25T06:08:58.122Z,24.9
2018-08-25T06:09:47.906Z,24.9
2018-08-25T06:10:38.286Z,25
2018-08-25T06:11:26.653Z,24.9
2018-08-25T06:12:17.780Z,24.9
2018-08-25T06:13:07.848Z,25
2018-08-25T06:13:58.318Z,24.9
2018-08-25T06:14:48.835Z,24.9
2018-08-25T06:15:38.593Z,24.9
2018-08-25T06:16:28.152Z,24.9
2018-08-25T06:17:18.954Z,24.9
2018-08-25T06:18:08.798Z,24.9
2018-08-25T06:18:58.515Z,24.9
2018-08-25T06:19:48.613Z,24.9
2018-08-25T06:20:38.454Z,24.9
2018-08-25T06:21:28.000Z,24.9
2018-08-25T06:22:18.872Z,24.9
2018-08-25T06:23:08.415Z,24.9
2018-08-25T06:23:58.268Z,24.9
2018-08-25T06:24:48.795Z,24.9
2018-08-25T06:25:38.558Z,24.9
2018-08-25T06:26:28.386Z,24.9
2018-08-25T06:27:19.411Z,24.9
2018-08-25T06:28:09.609Z,24.9
2018-08-25T06:28:59.337Z,24.9
2018-08-25T06:29:51.376Z,24.9
2018-08-25T06:30:39.560Z,24.9
2018-08-25T06:31:28.795Z,24.8
2018-08-25T06:32:19.394Z,24.8
2018-08-25T06:33:09.710Z,24.8
2018-08-25T06:33:58.682Z,24.8
2018-08-25T06:34:49.550Z,24.8
2018-08-25T06:35:39.282Z,24.8
2018-08-25T06:36:30.018Z,24.8
2018-08-25T06:37:19.770Z,24.8
2018-08-25T06:38:09.998Z,24.8
2018-08-25T06:39:00.080Z,24.8
2018-08-25T06:39:50.433Z,24.8
2018-08-25T06:40:40.217Z,24.8
2018-08-25T06:41:29.236Z,24.7
2018-08-25T06:42:20.350Z,24.7
2018-08-25T06:43:09.622Z,24.7
2018-08-25T06:43:59.956Z,24.7
2018-08-25T06:44:49.435Z,24.6
2018-08-25T06:45:40.057Z,24.7
2018-08-25T06:46:30.751Z,24.6
2018-08-25T06:47:20.215Z,24.6
2018-08-25T06:48:10.539Z,24.6
2018-08-25T06:49:01.456Z,24.6
2018-08-25T06:49:50.081Z,24.6
2018-08-25T06:50:41.325Z,24.6
2018-08-25T06:51:30.211Z,24.5
2018-08-25T06:52:21.169Z,24.5
2018-08-25T06:53:11.633Z,24.5
2018-08-25T06:53:59.861Z,24.5
2018-08-25T06:54:49.931Z,24.5
2018-08-25T06:55:41.099Z,24.4
2018-08-25T06:56:31.255Z,24.4
2018-08-25T06:57:20.435Z,24.5
2018-08-25T06:58:11.513Z,24.4
2018-08-25T06:59:01.784Z,24.4
2018-08-25T06:59:51.544Z,24.4
2018-08-25T07:00:40.473Z,24.4
2018-08-25T07:01:31.578Z,24.4
2018-08-25T07:02:20.593Z,24.4
2018-08-25T07:03:11.525Z,24.4
2018-08-25T07:04:01.325Z,24.4
2018-08-25T07:04:51.792Z,24.4
2018-08-25T07:05:42.507Z,24.4
2018-08-25T07:06:32.077Z,24.4
2018-08-25T07:07:22.169Z,24.4
2018-08-25T07:08:11.536Z,24.4
2018-08-25T07:09:01.882Z,24.4
2018-08-25T07:09:53.090Z,24.4
2018-08-25T07:10:42.516Z,24.4
2018-08-25T07:11:31.849Z,24.4
2018-08-25T07:12:21.583Z,24.4
2018-08-25T07:13:12.733Z,24.4
2018-08-25T07:14:02.520Z,24.4
2018-08-25T07:14:52.854Z,24.5
2018-08-25T07:15:43.194Z,24.4
2018-08-25T07:16:32.635Z,24.4
2018-08-25T07:17:22.478Z,24.5
2018-08-25T07:18:12.827Z,24.5
2018-08-25T07:19:04.354Z,24.5
2018-08-25T07:19:52.990Z,24.5
2018-08-25T07:20:43.284Z,24.5
2018-08-25T07:21:33.156Z,24.6
2018-08-25T07:22:22.944Z,24.5
2018-08-25T07:23:13.507Z,24.6
2018-08-25T07:24:01.609Z,24.6
2018-08-25T07:24:52.578Z,24.6
2018-08-25T07:25:43.461Z,24.6
2018-08-25T07:26:33.351Z,24.6
2018-08-25T07:27:22.702Z,24.6
2018-08-25T07:28:13.861Z,24.6
2018-08-25T07:29:03.629Z,24.6
2018-08-25T07:29:52.676Z,24.6
2018-08-25T07:30:44.366Z,24.6
2018-08-25T07:31:34.367Z,24.6
2018-08-25T07:32:25.369Z,24.6
2018-08-25T07:33:14.083Z,24.6
2018-08-25T07:34:03.253Z,24.6
2018-08-25T07:34:54.987Z,24.6
2018-08-25T07:35:44.781Z,24.6
2018-08-25T07:36:34.500Z,24.6
2018-08-25T07:37:24.301Z,24.7
2018-08-25T07:38:15.099Z,24.7
2018-08-25T07:39:04.171Z,24.7
2018-08-25T07:39:54.221Z,24.7
2018-08-25T07:40:45.108Z,24.8
2018-08-25T07:41:34.710Z,24.7
2018-08-25T07:42:23.962Z,24.7
2018-08-25T07:43:14.945Z,24.7
2018-08-25T07:44:04.941Z,24.8
2018-08-25T07:44:54.397Z,24.8
2018-08-25T07:45:44.050Z,24.8
2018-08-25T07:46:34.520Z,24.8
2018-08-25T07:47:25.650Z,24.8
2018-08-25T07:48:15.813Z,24.8
2018-08-25T07:49:04.419Z,24.8
2018-08-25T07:49:54.456Z,24.8
2018-08-25T07:50:45.569Z,24.8
2018-08-25T07:51:35.671Z,24.8
2018-08-25T07:52:24.600Z,24.8
2018-08-25T07:53:15.896Z,24.8
2018-08-25T07:54:05.484Z,24.8
2018-08-25T07:54:55.656Z,24.8
2018-08-25T07:55:46.283Z,24.8
2018-08-25T07:56:36.015Z,24.9
2018-08-25T07:57:26.122Z,24.9
2018-08-25T07:58:15.730Z,24.8
2018-08-25T07:59:06.850Z,24.8
2018-08-25T07:59:56.257Z,24.9
2018-08-25T08:00:46.431Z,24.9
2018-08-25T08:01:36.207Z,24.9
2018-08-25T08:02:26.818Z,24.9
2018-08-25T08:03:16.581Z,24.9
2018-08-25T08:04:06.394Z,24.9
2018-08-25T08:04:57.417Z,24.9
2018-08-25T08:05:48.023Z,24.9
2018-08-25T08:06:35.994Z,24.9
2018-08-25T08:07:26.891Z,24.9
2018-08-25T08:08:15.709Z,24.9
2018-08-25T08:09:07.117Z,24.9
2018-08-25T08:09:56.557Z,24.9
2018-08-25T08:10:46.069Z,25
2018-08-25T08:11:36.070Z,24.9
2018-08-25T08:12:29.409Z,24.9
2018-08-25T08:13:17.456Z,25
2018-08-25T08:14:07.512Z,25
2018-08-25T08:14:57.248Z,24.9
2018-08-25T08:15:47.140Z,25
2018-08-25T08:16:37.674Z,25
2018-08-25T08:17:27.671Z,25
2018-08-25T08:18:16.689Z,25
2018-08-25T08:19:07.883Z,25
2018-08-25T08:19:57.943Z,25
2018-08-25T08:20:47.224Z,25
2018-08-25T08:21:37.143Z,25
2018-08-25T08:22:27.843Z,25.1
2018-08-25T08:23:17.620Z,25.1
2018-08-25T08:24:05.348Z,25
2018-08-25T08:24:58.313Z,25.1
2018-08-25T08:25:47.888Z,25
2018-08-25T08:26:37.463Z,25.1
2018-08-25T08:27:28.158Z,25.1
2018-08-25T08:28:18.870Z,25.1
2018-08-25T08:29:08.082Z,25.1
2018-08-25T08:29:58.914Z,25.1
2018-08-25T08:30:48.441Z,25.1
2018-08-25T08:31:39.094Z,25.1
2018-08-25T08:32:28.893Z,25.1
2018-08-25T08:33:19.323Z,25.1
2018-08-25T08:34:08.428Z,25.1
2018-08-25T08:34:58.498Z,25.1
2018-08-25T08:35:48.867Z,25.1
2018-08-25T08:36:39.188Z,25.1
2018-08-25T08:37:28.503Z,25.1
2018-08-25T08:38:19.666Z,25.1
2018-08-25T08:39:08.914Z,25.1
2018-08-25T08:39:58.255Z,25.1
2018-08-25T08:40:48.884Z,25.1
2018-08-25T08:41:38.269Z,25.1
2018-08-25T08:42:31.680Z,25.1
2018-08-25T08:43:19.528Z,25.1
2018-08-25T08:44:09.302Z,25.2
2018-08-25T08:44:59.349Z,25.1
2018-08-25T08:45:49.464Z,25.2
2018-08-25T08:46:39.253Z,25.2
2018-08-25T08:47:30.617Z,25.2
2018-08-25T08:48:20.137Z,25.2
2018-08-25T08:49:10.207Z,25.2
2018-08-25T08:50:01.094Z,25.2
2018-08-25T08:50:50.355Z,25.2
2018-08-25T08:51:41.017Z,25.2
2018-08-25T08:52:31.328Z,25.2
2018-08-25T08:53:19.952Z,25.2
2018-08-25T08:54:10.505Z,25.2
2018-08-25T08:55:00.974Z,25.3
2018-08-25T08:55:50.715Z,25.3
2018-08-25T08:56:41.076Z,25.3
2018-08-25T08:57:30.769Z,25.3
2018-08-25T08:58:22.755Z,25.3
2018-08-25T09:15:04.191Z,25.3
2018-08-25T09:15:53.444Z,25.4
2018-08-25T09:16:42.437Z,25.4
2018-08-25T09:17:34.445Z,25.3
2018-08-25T09:18:24.890Z,25.4
2018-08-25T09:19:14.695Z,25.4
2018-08-25T09:20:04.939Z,25.4
2018-08-25T09:20:54.645Z,25.4
2018-08-25T09:21:44.498Z,25.4
2018-08-25T09:22:33.488Z,25.4
2018-08-25T09:23:24.959Z,25.4
2018-08-25T09:24:14.528Z,25.4
2018-08-25T09:25:04.533Z,25.4
2018-08-25T09:25:55.081Z,25.4
2018-08-25T09:26:44.897Z,25.4
2018-08-25T09:27:37.320Z,25.4
2018-08-25T09:28:25.294Z,25.4
2018-08-25T09:29:15.208Z,25.4
2018-08-25T09:30:04.854Z,25.4
2018-08-25T09:30:56.048Z,25.4
2018-08-25T09:31:45.852Z,25.4
2018-08-25T09:32:35.623Z,25.5
2018-08-25T09:33:24.991Z,25.5
2018-08-25T09:34:15.532Z,25.5
2018-08-25T09:35:06.129Z,25.5
2018-08-25T09:35:58.806Z,25.5
2018-08-25T09:36:50.862Z,25.5
2018-08-25T09:37:36.030Z,25.5
2018-08-25T09:38:25.492Z,25.5
2018-08-25T09:39:16.199Z,25.5
2018-08-25T09:40:05.929Z,25.5
2018-08-25T09:40:55.711Z,25.5
2018-08-25T09:41:47.408Z,25.5
2018-08-25T09:42:35.611Z,25.5
2018-08-25T09:43:25.901Z,25.5
2018-08-25T09:44:16.804Z,25.5
2018-08-25T09:45:06.530Z,25.6
2018-08-25T09:45:57.484Z,25.6
2018-08-25T09:46:46.188Z,25.5
2018-08-25T09:47:36.474Z,25.5
2018-08-25T09:48:26.654Z,25.6
2018-08-25T09:49:17.438Z,25.6
2018-08-25T09:50:06.952Z,25.6
2018-08-25T09:50:57.541Z,25.6
2018-08-25T09:51:47.091Z,25.6
2018-08-25T09:52:36.688Z,25.6
2018-08-25T09:53:27.655Z,25.5
2018-08-25T09:54:17.586Z,25.6
2018-08-25T09:55:07.146Z,25.6
2018-08-25T09:55:57.380Z,25.6
2018-08-25T09:56:47.150Z,25.6
2018-08-25T09:57:37.518Z,25.6
2018-08-25T09:58:28.057Z,25.6
2018-08-25T09:59:18.826Z,25.6
2018-08-25T10:00:07.799Z,25.6
2018-08-25T10:00:58.080Z,25.6
2018-08-25T10:01:47.889Z,25.6
2018-08-25T10:02:38.237Z,25.6
2018-08-25T10:03:28.881Z,25.6
2018-08-25T10:04:17.819Z,25.6
2018-08-25T10:05:08.544Z,25.6
2018-08-25T10:05:58.589Z,25.6
2018-08-25T10:06:48.839Z,25.6
2018-08-25T10:07:38.111Z,25.6
2018-08-25T10:08:28.986Z,25.6
2018-08-25T10:09:18.759Z,25.6
2018-08-25T10:10:09.381Z,25.6
2018-08-25T10:11:01.465Z,25.6
2018-08-25T10:11:49.483Z,25.6
2018-08-25T10:12:38.783Z,25.6
2018-08-25T10:13:29.106Z,25.6
2018-08-25T10:14:19.453Z,25.6
2018-08-25T10:15:10.090Z,25.6
2018-08-25T10:15:59.363Z,25.6
2018-08-25T10:16:50.561Z,25.6
2018-08-25T10:17:38.688Z,25.6
2018-08-25T10:18:29.227Z,25.6
2018-08-25T10:19:19.510Z,25.6
2018-08-25T10:20:09.082Z,25.7
2018-08-25T10:20:59.694Z,25.6
2018-08-25T10:21:49.168Z,25.6
2018-08-25T10:22:39.141Z,25.6
2018-08-25T10:23:29.964Z,25.6
2018-08-25T10:24:19.127Z,25.6
2018-08-25T10:25:10.656Z,25.6
2018-08-25T10:26:00.580Z,25.6
2018-08-25T10:26:50.275Z,25.7
2018-08-25T10:27:39.902Z,25.6
2018-08-25T10:28:30.332Z,25.7
2018-08-25T10:29:20.370Z,25.7
2018-08-25T10:30:10.670Z,25.7
2018-08-25T10:30:59.379Z,25.6
2018-08-25T10:31:49.739Z,25.7
2018-08-25T10:32:39.214Z,25.7
2018-08-25T10:33:29.745Z,25.7
2018-08-25T10:34:20.171Z,25.6
2018-08-25T10:35:11.099Z,25.7
2018-08-25T10:36:01.229Z,25.7
2018-08-25T10:36:51.499Z,25.7
2018-08-25T10:37:40.698Z,25.7
2018-08-25T10:38:31.322Z,25.7
2018-08-25T10:39:20.860Z,25.8
2018-08-25T10:40:11.268Z,25.7
2018-08-25T10:41:00.211Z,25.7
2018-08-25T10:41:55.187Z,25.7
2018-08-25T10:42:41.405Z,25.8
2018-08-25T10:43:31.529Z,25.7
2018-08-25T10:44:20.475Z,25.7
2018-08-25T10:45:11.661Z,25.7
2018-08-25T10:46:01.084Z,25.7
2018-08-25T10:46:50.283Z,25.8
2018-08-25T10:47:40.899Z,25.8
2018-08-25T10:48:31.796Z,25.8
2018-08-25T10:49:22.227Z,25.8
2018-08-25T10:50:11.960Z,25.8
2018-08-25T10:51:01.761Z,25.8
2018-08-25T10:51:51.260Z,25.8
2018-08-25T10:52:42.551Z,25.8
2018-08-25T10:53:31.699Z,25.8
2018-08-25T10:54:22.342Z,25.8
2018-08-25T10:55:11.763Z,25.8
2018-08-25T10:56:02.398Z,25.8
2018-08-25T10:56:52.505Z,25.8
2018-08-25T10:57:43.331Z,25.8
2018-08-25T10:58:32.550Z,25.8
2018-08-25T10:59:22.377Z,25.8
2018-08-25T11:00:14.441Z,25.8
2018-08-25T11:01:06.938Z,25.8
2018-08-25T11:01:52.673Z,25.8
2018-08-25T11:02:42.393Z,25.8
2018-08-25T11:03:33.567Z,25.8
2018-08-25T11:04:23.372Z,25.8
2018-08-25T11:05:13.148Z,25.8
2018-08-25T11:06:03.040Z,25.8
2018-08-25T11:06:53.539Z,25.8
2018-08-25T11:07:43.794Z,25.8
2018-08-25T11:08:33.149Z,25.8
2018-08-25T11:09:23.187Z,25.8
2018-08-25T11:10:13.266Z,25.8
2018-08-25T11:11:03.312Z,25.8
2018-08-25T11:11:53.180Z,25.8
2018-08-25T11:12:43.498Z,25.8
2018-08-25T11:13:34.121Z,25.8
2018-08-25T11:14:24.135Z,25.8
2018-08-25T11:15:13.692Z,25.8
2018-08-25T11:16:04.007Z,25.8
2018-08-25T11:16:54.114Z,25.8
2018-08-25T11:17:43.830Z,25.8
2018-08-25T11:18:34.221Z,25.8
2018-08-25T11:19:24.598Z,25.8
2018-08-25T11:20:13.846Z,25.8
2018-08-25T11:21:04.105Z,25.9
2018-08-25T11:21:53.641Z,25.9
2018-08-25T11:22:44.610Z,25.9
2018-08-25T11:23:34.094Z,25.9
2018-08-25T11:24:23.791Z,25.9
2018-08-25T11:25:14.836Z,25.9
2018-08-25T11:26:03.362Z,25.9
2018-08-25T11:26:54.353Z,25.9
2018-08-25T11:27:44.151Z,25.9
2018-08-25T11:28:34.119Z,25.9
2018-08-25T11:29:27.890Z,25.9
2018-08-25T11:30:14.861Z,25.9
2018-08-25T11:31:04.555Z,25.9
2018-08-25T11:31:55.473Z,25.9
2018-08-25T11:32:44.734Z,25.9
2018-08-25T11:33:34.515Z,25.9
2018-08-25T11:34:25.407Z,25.9
2018-08-25T11:35:15.767Z,25.9
2018-08-25T11:36:05.276Z,25.9
2018-08-25T11:36:55.797Z,25.9
2018-08-25T11:37:47.805Z,25.9
2018-08-25T11:38:35.212Z,25.9
2018-08-25T11:39:25.821Z,25.9
2018-08-25T11:40:15.923Z,25.9
2018-08-25T11:41:05.427Z,25.9
2018-08-25T11:41:55.784Z,25.9
2018-08-25T11:42:45.504Z,25.9
2018-08-25T11:43:36.506Z,25.9
2018-08-25T11:44:26.004Z,25.9
2018-08-25T11:45:16.014Z,25.9
2018-08-25T11:46:05.459Z,25.9
2018-08-25T11:46:56.741Z,25.9
2018-08-25T11:47:45.367Z,25.9
2018-08-25T11:48:36.551Z,25.9
2018-08-25T11:49:25.527Z,25.9
2018-08-25T11:50:16.431Z,25.9
2018-08-25T11:51:06.785Z,25.9
2018-08-25T11:51:56.792Z,26
2018-08-25T11:52:47.249Z,26
2018-08-25T11:53:36.404Z,26
2018-08-25T11:54:27.349Z,26
2018-08-25T11:55:16.823Z,26
2018-08-25T11:56:07.497Z,26
2018-08-25T11:56:57.253Z,26
2018-08-25T11:57:45.831Z,26
2018-08-25T11:58:36.526Z,26
2018-08-25T11:59:26.013Z,26
2018-08-25T12:00:17.859Z,26.1
2018-08-25T12:01:07.286Z,26.1
2018-08-25T12:01:56.717Z,26.1